URME weather

Yessentuki Airport
Yessentuki, Stavropol Krai, Russia

Public forecast

Using degrees Celsius for public forecast. Weather courtesy of forecast.io.

METAR (pilot weather report)

Closest report is Mineralnyye Vody Airport, 14.7 nm (27.3 km) NE. Retrieved 2019/08/19 13:30 UTC (0 seconds ago):

URMM 191330Z 32002MPS 9999 NSC 34/12 Q1014 R30/090070 NOSIG RMK QFE732/0977

TAF (pilot weather forecast)

Closest forecast is Mineralnyye Vody Airport, 14.7 nm (27.3 km) NE. Retrieved 2019/08/19 12:21 UTC (1 hour ago):

TAF URMM 191100Z 1912/2012 10003G08MPS 9999 NSC TX32/1912Z TN19/2003Z TEMPO 1922/2005 28003G08MPS 5000 BR BKN015